Beirne, AR (71721)

7:51 PM CDT on March 29, 2017 (GMT -0500)
Florence Mem AP, Arkadelphia, | | Change Station
Active Advisory: Tornado Watch

Elev 184 ft 34.10 °N, 93.07 °W | Updated 18 minutes ago

Overcast
Overcast
75 °F
Feels Like 75 °F
N
8
Wind Variable Wind from South

Today
High -- | Low -- °F
--% Chance of Precip.
Yesterday
High -- | Low -- °F
Precip. -- in
Pressure 29.73 in
Visibility 10.0 miles
Clouds Few 8000 ft
Overcast 9000 ft
Dew Point 64 °F
Humidity 69%
Rainfall 0.05 in
Snow Depth Not available.
7:03 AM 7:31 PM
Waxing Crescent, 5% visible
SPECI KADF 300033Z AUTO 17007KT 10SM FEW080 OVC090 24/18 A2973 RMK AO2 LTG DSNT N AND NW TSB07E22
Pressure 29.73 in
Visibility 10.0 miles
Clouds Few 8000 ft
Overcast 9000 ft
Dew Point 64 °F
Humidity 69%
Rainfall 0.05 in
Snow Depth Not available.
7:03 AM 7:31 PM
Waxing Crescent, 5% visible
SPECI KADF 300033Z AUTO 17007KT 10SM FEW080 OVC090 24/18 A2973 RMK AO2 LTG DSNT N AND NW TSB07E22

Get Your Daily Forecast Email!

Thanks for signing up!

Be on the lookout for a verification email in your inbox.

You'll start receiving severe weather alerts in your inbox..

×

10-Day Weather Forecast

Almanac

Astronomy

Mar. 29, 2017 Rise Set
Actual Time
Civil Twilight
Nautical Twilight
Astronomical Twilight
Moon
Length of Visible Light
Length of Day
Tomorrow will be .
, % of the Moon is Illuminated

Today's Extremes

State Highs State Lows

Community

WunderPhotos

Upload Photos

1,962,540 photos uploaded!

WunderBlog® & News

Nearby

Air Quality

  Air Quality AQ Index Pollutant
Not available.

Snow Depth

Station Depth Elevation

Earthquake Activity

City Distance Mag. Time & Date
Minimum magnitude displayed is 2.5.

Earthquake Activity

City Distance Mag. Time & Date
Minimum magnitude displayed is 2.5.

Coastal Water Temperatures

Place Temperature

Stations

Nearby Weather Stations

Station Location Temp. Windchill Dew Point Humidity Wind Precip. Elev Updated Type
                   

Watches & Warnings

Tornado Watch
Issued: 7:43 PM CDT Mar. 29, 2017 – National Weather Service

Tornado Watch 100 remains in effect until 1200 am CDT for the
following locations


AR
. Arkansas counties included are

Baxter Benton Boone
Carroll Clark Conway
Crawford Franklin Fulton
Garland Hempstead Hot Spring
Howard Izard Johnson
Lafayette Little River Logan
Madison Marion Miller
Montgomery Nevada Newton
Perry Pike Polk
Pope Saline Scott
Searcy Sebastian Sevier
stone Van Buren Washington
Yell